Leroy, Michigan
Current Conditions -  °F | °C
As of 3:55 AM on Saturday 25 Oct 2014 (Local Time) from KCAD Reporting Station
Haze Haze  
Wind Chill: 44°   Ceiling: 2500
Heat Index: 47°   Visibility: 4mi
Dew Point: 47°   Wind: 8mph
Humidity: 99%   Direction: 220°SW
Pressure: 29.81"   Gusts: NA
Location:  44.03°N, 85.44°W
Report Text: KCAD 250755Z AUTO 22007KT 4SM BR BKN025 OVC032 08/08 A2981 RMK AO2 T00860084
Loading
Personal Weather Stations






























Interactive Weather Map
Tropical Storm Tracking
New forecast layout! Learn more

10-Day Weather Forecast

Advertisements
Track Severe Weather on mobile